Time;durP1;ratioP1;P1;durP2;ratioP2;P2;SDS_P1;SDS_P2;PMS_P1;PMS_P2;Temp;Humidity;BMP_temperature;BMP_pressure;BME280_temperature;BME280_humidity;BME280_pressure;Samples;Min_cycle;Max_cycle;Signal;HPM_P1;HPM_P2
2023/12/04 00:00:59;;;;;;;23.38;14.25;;;0.40;97.90;;;;;;6277594;22;20066;-69
2023/12/04 00:03:45;;;;;;;23.75;13.60;;;0.40;97.90;;;;;;6301848;22;20417;-69
2023/12/04 00:06:31;;;;;;;30.40;15.85;;;0.40;97.90;;;;;;6297938;22;20463;-69
2023/12/04 00:09:17;;;;;;;27.48;14.18;;;0.40;97.90;;;;;;6299804;22;20444;-70
2023/12/04 00:12:03;;;;;;;24.35;13.93;;;0.40;97.90;;;;;;6301574;22;20003;-69
2023/12/04 00:14:49;;;;;;;25.75;14.73;;;0.30;97.90;;;;;;6279642;22;20454;-70
2023/12/04 00:17:39;;;;;;;24.83;14.25;;;0.20;97.90;;;;;;6302001;22;20509;-70
2023/12/04 00:20:25;;;;;;;25.83;14.27;;;0.20;97.90;;;;;;6299700;22;20067;-70
2023/12/04 00:23:11;;;;;;;26.42;13.25;;;0.20;97.90;;;;;;6297690;22;20007;-69
2023/12/04 00:25:57;;;;;;;28.10;14.57;;;0.20;97.90;;;;;;6300311;22;20019;-69
2023/12/04 00:28:43;;;;;;;27.67;14.38;;;0.20;98.00;;;;;;6301114;22;20064;-69
2023/12/04 00:31:29;;;;;;;26.02;14.70;;;0.20;98.00;;;;;;6301202;22;20285;-68
2023/12/04 00:34:14;;;;;;;24.35;13.43;;;0.10;98.00;;;;;;6299163;22;20000;-68
2023/12/04 00:37:00;;;;;;;24.20;12.95;;;0.10;98.00;;;;;;6301221;22;20015;-67
2023/12/04 00:39:46;;;;;;;26.90;13.80;;;0.20;98.10;;;;;;6299648;22;20007;-68
2023/12/04 00:42:32;;;;;;;23.20;13.95;;;0.10;98.10;;;;;;6278907;22;20015;-68
2023/12/04 00:45:18;;;;;;;25.85;14.02;;;0.10;98.10;;;;;;6297773;22;20003;-68
2023/12/04 00:48:04;;;;;;;23.73;12.88;;;0.00;98.10;;;;;;6299285;22;20011;-68
2023/12/04 00:50:51;;;;;;;26.33;14.55;;;0.10;98.30;;;;;;6300386;22;20030;-68
2023/12/04 00:53:37;;;;;;;25.70;13.90;;;0.00;98.10;;;;;;6298143;22;20104;-67
2023/12/04 00:56:23;;;;;;;30.17;15.15;;;0.00;98.10;;;;;;6277507;22;20106;-68
2023/12/04 00:59:09;;;;;;;25.98;14.75;;;0.00;98.10;;;;;;6300919;22;20014;-69
2023/12/04 01:01:55;;;;;;;25.33;14.55;;;0.00;98.20;;;;;;6300655;22;20049;-70
2023/12/04 01:04:41;;;;;;;29.50;14.63;;;0.00;98.20;;;;;;6298550;22;20034;-70
2023/12/04 01:07:27;;;;;;;28.10;14.88;;;0.00;98.20;;;;;;6301729;22;20011;-70
2023/12/04 01:10:13;;;;;;;29.98;16.08;;;0.00;98.20;;;;;;6299863;22;20007;-70
2023/12/04 01:12:59;;;;;;;30.55;15.55;;;0.00;98.40;;;;;;6301321;22;20011;-69
2023/12/04 01:15:46;;;;;;;27.35;15.35;;;-0.10;98.30;;;;;;6301868;22;20023;-69
2023/12/04 01:18:32;;;;;;;30.30;14.80;;;-0.10;98.50;;;;;;6299829;22;20038;-70
2023/12/04 01:21:18;;;;;;;25.60;14.40;;;0.00;98.30;;;;;;6300959;22;20015;-70
2023/12/04 01:24:05;;;;;;;28.88;14.35;;;-0.10;98.30;;;;;;6301523;22;20003;-70
2023/12/04 01:26:50;;;;;;;25.48;13.50;;;-0.10;98.40;;;;;;6301204;22;19999;-66
2023/12/04 01:29:36;;;;;;;27.40;14.65;;;-0.20;98.40;;;;;;6279520;22;20365;-66
2023/12/04 01:32:22;;;;;;;30.13;16.70;;;-0.10;98.40;;;;;;6299661;22;20370;-66
2023/12/04 01:35:08;;;;;;;28.33;15.18;;;-0.20;98.40;;;;;;6297569;22;20473;-67
2023/12/04 01:37:54;;;;;;;29.10;15.85;;;-0.20;98.40;;;;;;6277462;22;20585;-66
2023/12/04 01:40:40;;;;;;;28.17;15.25;;;-0.20;98.40;;;;;;6300831;22;20015;-66
2023/12/04 01:43:28;;;;;;;29.42;14.50;;;-0.20;98.50;;;;;;6300478;22;20003;-67
2023/12/04 01:46:16;;;;;;;28.02;16.02;;;-0.30;98.50;;;;;;6299142;22;20031;-67
2023/12/04 01:49:03;;;;;;;25.63;14.68;;;-0.20;98.50;;;;;;6300907;22;20072;-68
2023/12/04 01:51:49;;;;;;;26.73;14.57;;;-0.30;98.50;;;;;;6301408;22;20003;-68
2023/12/04 01:54:35;;;;;;;27.42;15.68;;;-0.30;98.60;;;;;;6276913;22;20007;-68
2023/12/04 01:57:21;;;;;;;29.13;15.55;;;-0.30;98.60;;;;;;6279381;22;20084;-69
2023/12/04 02:00:11;;;;;;;26.35;14.27;;;-0.30;98.60;;;;;;6301035;22;20007;-68
2023/12/04 02:02:59;;;;;;;26.92;16.02;;;-0.20;98.60;;;;;;6278976;22;20022;-68
2023/12/04 02:05:45;;;;;;;26.23;14.80;;;-0.20;98.70;;;;;;6303046;22;20022;-70
2023/12/04 02:08:32;;;;;;;30.15;15.73;;;-0.20;98.70;;;;;;6303114;22;20015;-69
2023/12/04 02:11:18;;;;;;;27.98;15.48;;;-0.30;98.70;;;;;;6302538;22;20054;-72
2023/12/04 02:14:04;;;;;;;32.08;15.73;;;-0.20;98.70;;;;;;6301970;22;20007;-66
2023/12/04 02:16:52;;;;;;;32.70;16.00;;;-0.20;98.70;;;;;;6302670;22;20102;-65
2023/12/04 02:19:38;;;;;;;28.00;15.55;;;-0.20;98.70;;;;;;6302771;22;20018;-66
2023/12/04 02:22:24;;;;;;;28.92;15.25;;;-0.20;98.70;;;;;;6302049;22;20003;-66
2023/12/04 02:25:11;;;;;;;27.25;14.90;;;-0.20;98.70;;;;;;6297244;22;20430;-71
2023/12/04 02:28:00;;;;;;;28.40;15.63;;;-0.30;98.70;;;;;;6301036;22;20097;-73
2023/12/04 02:30:49;;;;;;;27.58;15.73;;;-0.30;98.70;;;;;;6300657;22;20501;-73
2023/12/04 02:33:36;;;;;;;26.33;14.90;;;-0.30;98.70;;;;;;6300441;22;20328;-70
2023/12/04 02:36:24;;;;;;;29.08;15.30;;;-0.30;98.80;;;;;;6299614;22;20099;-73
2023/12/04 02:39:11;;;;;;;31.17;15.00;;;-0.30;98.70;;;;;;6300153;22;20042;-73
2023/12/04 02:41:57;;;;;;;27.35;14.85;;;-0.30;98.70;;;;;;6300980;22;20014;-64
2023/12/04 02:44:43;;;;;;;27.92;14.40;;;-0.30;98.80;;;;;;6298608;22;20015;-66
2023/12/04 02:47:29;;;;;;;27.55;14.23;;;-0.30;98.80;;;;;;6301178;22;20007;-64
2023/12/04 02:50:15;;;;;;;29.35;15.40;;;-0.30;98.80;;;;;;6301787;22;20418;-64
2023/12/04 02:53:00;;;;;;;26.55;14.13;;;-0.30;98.80;;;;;;6301347;22;20117;-71
2023/12/04 02:55:46;;;;;;;25.00;14.32;;;-0.30;98.80;;;;;;6299737;22;20015;-71
2023/12/04 02:58:34;;;;;;;28.40;15.55;;;-0.30;98.80;;;;;;6278281;22;20444;-72
2023/12/04 03:01:19;;;;;;;29.88;15.18;;;-0.30;98.80;;;;;;6299426;22;20000;-72
2023/12/04 03:04:06;;;;;;;25.20;14.27;;;-0.40;98.80;;;;;;6277372;22;20029;-72
2023/12/04 03:06:52;;;;;;;31.08;15.15;;;-0.30;98.90;;;;;;6300648;22;20007;-73
2023/12/04 03:09:38;;;;;;;27.95;14.93;;;-0.30;98.90;;;;;;6301153;22;20011;-66
2023/12/04 03:12:24;;;;;;;29.42;14.70;;;-0.30;98.90;;;;;;6277544;22;20358;-66
2023/12/04 03:15:11;;;;;;;28.52;15.00;;;-0.30;98.90;;;;;;6299441;22;20015;-66
2023/12/04 03:17:59;;;;;;;27.70;14.95;;;-0.30;98.90;;;;;;6275869;22;20007;-66
2023/12/04 03:20:45;;;;;;;27.80;14.55;;;-0.30;98.90;;;;;;6277705;22;20378;-66
2023/12/04 03:23:31;;;;;;;26.48;13.93;;;-0.30;98.90;;;;;;6299366;22;20015;-66
2023/12/04 03:26:17;;;;;;;27.60;14.77;;;-0.40;99.10;;;;;;6298650;22;20365;-66
2023/12/04 03:29:03;;;;;;;25.25;13.50;;;-0.40;98.90;;;;;;6302076;22;20030;-66
2023/12/04 03:31:49;;;;;;;28.70;14.63;;;-0.40;98.90;;;;;;6301435;22;20015;-67
2023/12/04 03:34:35;;;;;;;31.00;16.90;;;-0.40;98.90;;;;;;6277361;22;20022;-66
2023/12/04 03:37:21;;;;;;;28.15;15.20;;;-0.40;98.90;;;;;;6301734;22;20015;-69
2023/12/04 03:40:07;;;;;;;26.50;15.00;;;-0.50;98.90;;;;;;6299877;22;20007;-68
2023/12/04 03:42:53;;;;;;;26.77;15.10;;;-0.50;98.90;;;;;;6301681;22;20007;-68
2023/12/04 03:45:39;;;;;;;27.73;15.18;;;-0.50;98.90;;;;;;6301318;22;20095;-68
2023/12/04 03:48:25;;;;;;;28.23;14.68;;;-0.50;98.90;;;;;;6302736;22;20137;-68
2023/12/04 03:51:11;;;;;;;28.48;13.95;;;-0.50;98.90;;;;;;6299455;22;20004;-69
2023/12/04 03:53:57;;;;;;;27.75;14.63;;;-0.50;98.90;;;;;;6277053;22;20425;-68
2023/12/04 03:56:43;;;;;;;27.48;14.10;;;-0.50;98.90;;;;;;6301416;22;20099;-68
2023/12/04 03:59:29;;;;;;;27.02;15.38;;;-0.50;98.90;;;;;;6301371;22;20079;-68
2023/12/04 04:02:15;;;;;;;30.83;14.88;;;-0.50;98.90;;;;;;6299841;22;20529;-68
2023/12/04 04:05:01;;;;;;;28.60;15.20;;;-0.50;98.90;;;;;;6298813;22;20090;-69
2023/12/04 04:07:47;;;;;;;28.95;15.23;;;-0.50;98.90;;;;;;6298281;22;20011;-66
2023/12/04 04:10:33;;;;;;;30.90;16.27;;;-0.50;98.90;;;;;;6297874;22;20046;-66
2023/12/04 04:13:19;;;;;;;26.90;15.02;;;-0.50;98.90;;;;;;6301358;22;20022;-66
2023/12/04 04:16:05;;;;;;;29.02;16.05;;;-0.50;98.90;;;;;;6277349;22;20054;-65
2023/12/04 04:18:51;;;;;;;27.25;14.23;;;-0.50;98.90;;;;;;6298287;22;20018;-66
2023/12/04 04:21:40;;;;;;;26.08;14.02;;;-0.50;98.90;;;;;;6298688;22;20090;-65
2023/12/04 04:24:26;;;;;;;24.42;13.85;;;-0.50;98.90;;;;;;6301766;22;20061;-65
2023/12/04 04:27:12;;;;;;;25.95;14.23;;;-0.50;98.90;;;;;;6300656;22;20037;-65
2023/12/04 04:29:58;;;;;;;30.02;14.73;;;-0.50;98.90;;;;;;6299952;22;20014;-65
2023/12/04 04:32:44;;;;;;;26.58;14.75;;;-0.50;99.00;;;;;;6300737;22;20011;-65
2023/12/04 04:35:30;;;;;;;24.88;14.27;;;-0.50;98.80;;;;;;6277525;22;20099;-68
2023/12/04 04:38:16;;;;;;;26.83;14.60;;;-0.50;98.90;;;;;;6300520;22;20007;-69
2023/12/04 04:41:02;;;;;;;25.08;13.23;;;-0.50;98.80;;;;;;6299753;22;20014;-68
2023/12/04 04:43:48;;;;;;;23.75;12.93;;;-0.50;98.80;;;;;;6300743;22;20171;-68
2023/12/04 04:46:34;;;;;;;23.05;13.73;;;-0.50;98.80;;;;;;6299994;22;20489;-68
2023/12/04 04:49:20;;;;;;;26.17;13.82;;;-0.50;98.80;;;;;;6301030;22;20382;-68
2023/12/04 04:52:06;;;;;;;27.33;13.63;;;-0.50;98.80;;;;;;6277343;22;20011;-68
2023/12/04 04:54:52;;;;;;;25.88;13.07;;;-0.50;99.00;;;;;;6297213;22;20039;-67
2023/12/04 04:57:38;;;;;;;25.33;13.43;;;-0.50;98.80;;;;;;6300670;22;20011;-67
2023/12/04 05:00:24;;;;;;;24.75;12.63;;;-0.50;98.80;;;;;;6299787;22;20003;-67
2023/12/04 05:03:10;;;;;;;23.63;13.38;;;-0.50;98.80;;;;;;6276799;22;19999;-66
2023/12/04 05:05:56;;;;;;;25.83;12.88;;;-0.50;98.80;;;;;;6298992;22;20011;-66
2023/12/04 05:08:42;;;;;;;29.25;14.65;;;-0.50;98.80;;;;;;6300639;22;20007;-66
2023/12/04 05:11:28;;;;;;;22.77;12.52;;;-0.50;98.80;;;;;;6298704;22;20308;-66
2023/12/04 05:14:14;;;;;;;22.52;12.30;;;-0.50;98.80;;;;;;6300574;22;20519;-66
2023/12/04 05:17:00;;;;;;;23.73;13.68;;;-0.40;98.80;;;;;;6300152;22;20397;-67
2023/12/04 05:19:46;;;;;;;23.35;12.98;;;-0.40;98.80;;;;;;6299807;22;20004;-67
2023/12/04 05:22:32;;;;;;;24.08;13.13;;;-0.50;98.70;;;;;;6300692;22;20012;-67
2023/12/04 05:25:18;;;;;;;22.90;13.43;;;-0.50;98.70;;;;;;6301835;22;20011;-67
2023/12/04 05:28:04;;;;;;;25.30;12.98;;;-0.50;98.70;;;;;;6301299;22;20042;-67
2023/12/04 05:30:50;;;;;;;22.65;13.43;;;-0.50;98.60;;;;;;6300690;22;20050;-67
2023/12/04 05:33:36;;;;;;;22.45;12.40;;;-0.40;98.60;;;;;;6301220;22;20031;-67
2023/12/04 05:36:22;;;;;;;23.17;13.80;;;-0.50;98.60;;;;;;6303143;22;20026;-67
2023/12/04 05:39:08;;;;;;;22.73;12.95;;;-0.60;98.60;;;;;;6301874;22;20022;-67
2023/12/04 05:41:54;;;;;;;28.98;15.13;;;-0.50;98.60;;;;;;6300764;22;20014;-67
2023/12/04 05:44:40;;;;;;;24.80;14.27;;;-0.50;98.60;;;;;;6302045;22;20018;-67
2023/12/04 05:47:26;;;;;;;23.17;12.95;;;-0.60;98.60;;;;;;6303118;22;20022;-66
2023/12/04 05:50:12;;;;;;;24.70;14.15;;;-0.60;98.60;;;;;;6302197;22;20007;-66
2023/12/04 05:52:58;;;;;;;24.85;13.10;;;-0.60;98.60;;;;;;6300909;22;20011;-66
2023/12/04 05:55:46;;;;;;;24.88;14.00;;;-0.60;98.60;;;;;;6301544;22;20100;-66
2023/12/04 05:58:32;;;;;;;28.00;15.55;;;-0.60;98.60;;;;;;6301960;22;20007;-66
2023/12/04 06:01:18;;;;;;;28.63;14.15;;;-0.60;98.60;;;;;;6302361;22;20015;-66
2023/12/04 06:04:04;;;;;;;26.67;14.38;;;-0.60;98.60;;;;;;6298520;22;20003;-66
2023/12/04 06:06:50;;;;;;;24.20;12.85;;;-0.60;98.60;;;;;;6300193;22;20011;-66
2023/12/04 06:09:36;;;;;;;27.77;14.32;;;-0.60;98.60;;;;;;6299917;22;20034;-66
2023/12/04 06:12:22;;;;;;;26.23;14.95;;;-0.60;98.60;;;;;;6303103;22;20007;-68
2023/12/04 06:15:09;;;;;;;24.65;14.00;;;-0.60;98.70;;;;;;6299679;22;20085;-68
2023/12/04 06:17:55;;;;;;;24.40;14.45;;;-0.60;98.70;;;;;;6301698;22;20017;-67
2023/12/04 06:20:41;;;;;;;27.73;14.98;;;-0.50;98.70;;;;;;6301937;22;20373;-68
2023/12/04 06:23:27;;;;;;;26.73;14.70;;;-0.50;99.00;;;;;;6301095;22;20007;-68
2023/12/04 06:26:13;;;;;;;25.38;15.25;;;-0.50;98.70;;;;;;6302824;22;20480;-68
2023/12/04 06:28:59;;;;;;;24.10;12.63;;;-0.50;98.80;;;;;;6304404;22;20003;-68
2023/12/04 06:31:45;;;;;;;24.67;13.52;;;-0.50;98.80;;;;;;6301248;22;20051;-68
2023/12/04 06:34:32;;;;;;;25.95;13.35;;;-0.40;98.80;;;;;;6302055;22;20007;-68
2023/12/04 06:37:18;;;;;;;26.13;13.48;;;-0.40;98.90;;;;;;6300972;22;20015;-68
2023/12/04 06:40:06;;;;;;;25.02;13.73;;;-0.40;98.90;;;;;;6297703;22;20011;-62
2023/12/04 06:42:52;;;;;;;26.35;13.60;;;-0.40;98.90;;;;;;6302191;22;20057;-60
2023/12/04 06:45:38;;;;;;;25.60;14.55;;;-0.30;98.90;;;;;;6301092;22;20008;-61
2023/12/04 06:48:24;;;;;;;22.02;12.45;;;-0.30;98.90;;;;;;6301524;22;20443;-62
2023/12/04 06:51:10;;;;;;;24.40;13.70;;;-0.30;98.90;;;;;;6300185;22;20023;-64
2023/12/04 06:53:56;;;;;;;25.95;13.43;;;-0.30;98.90;;;;;;6299351;22;20471;-65
2023/12/04 06:56:42;;;;;;;21.90;13.13;;;-0.20;98.90;;;;;;6302472;22;20019;-68
2023/12/04 06:59:28;;;;;;;23.67;13.55;;;-0.20;98.90;;;;;;6297383;22;20008;-68
2023/12/04 07:02:14;;;;;;;24.08;13.95;;;-0.20;98.90;;;;;;6300397;22;20092;-67
2023/12/04 07:05:00;;;;;;;27.45;15.10;;;-0.20;98.80;;;;;;6299128;22;20065;-67
2023/12/04 07:07:46;;;;;;;23.65;13.35;;;-0.20;98.80;;;;;;6279182;22;20043;-67
2023/12/04 07:10:32;;;;;;;22.65;14.23;;;-0.30;98.80;;;;;;6299827;22;20068;-67
2023/12/04 07:13:18;;;;;;;25.65;13.30;;;-0.20;98.80;;;;;;6302198;22;20022;-67
2023/12/04 07:16:04;;;;;;;26.42;15.07;;;-0.20;98.80;;;;;;6297949;22;20019;-67
2023/12/04 07:18:50;;;;;;;27.05;14.02;;;-0.20;98.70;;;;;;6300155;22;20007;-68
2023/12/04 07:21:37;;;;;;;28.13;14.80;;;-0.20;98.70;;;;;;6301205;22;20090;-67
2023/12/04 07:24:23;;;;;;;26.55;14.32;;;-0.30;98.70;;;;;;6299864;22;20030;-67
2023/12/04 07:27:09;;;;;;;22.70;13.30;;;-0.30;98.70;;;;;;6301714;22;20003;-68
2023/12/04 07:29:55;;;;;;;28.00;15.10;;;-0.30;98.70;;;;;;6299557;22;20014;-67
2023/12/04 07:32:41;;;;;;;27.35;14.90;;;-0.30;98.70;;;;;;6297649;22;20050;-68
2023/12/04 07:35:27;;;;;;;29.17;14.77;;;-0.20;98.70;;;;;;6299711;22;20590;-71
2023/12/04 07:38:13;;;;;;;22.95;13.18;;;-0.20;98.70;;;;;;6298709;22;20522;-71
2023/12/04 07:40:58;;;;;;;22.58;12.68;;;-0.20;98.70;;;;;;6277411;22;20072;-70
2023/12/04 07:43:45;;;;;;;28.65;14.15;;;-0.20;98.80;;;;;;6300164;22;20090;-70
2023/12/04 07:46:30;;;;;;;27.67;14.07;;;-0.10;98.90;;;;;;6298048;22;20266;-70
2023/12/04 07:49:16;;;;;;;22.15;13.02;;;-0.10;98.90;;;;;;6294814;22;20014;-70
2023/12/04 07:52:03;;;;;;;21.83;11.50;;;0.00;99.00;;;;;;6299057;22;20446;-70
2023/12/04 07:54:49;;;;;;;22.02;13.18;;;0.00;99.00;;;;;;6277818;22;20362;-70
2023/12/04 07:57:35;;;;;;;23.65;12.73;;;0.10;99.10;;;;;;6298544;22;20019;-71
2023/12/04 08:00:22;;;;;;;26.40;13.90;;;0.10;99.10;;;;;;6277906;22;20039;-69
2023/12/04 08:03:08;;;;;;;22.20;13.52;;;0.20;99.30;;;;;;6299034;22;20097;-72
2023/12/04 08:05:54;;;;;;;24.35;13.77;;;0.30;99.10;;;;;;6275232;22;20011;-71
2023/12/04 08:08:40;;;;;;;24.77;14.07;;;0.30;99.10;;;;;;6275922;22;20015;-77
2023/12/04 08:11:26;;;;;;;23.23;12.45;;;0.30;99.00;;;;;;6301561;22;20022;-70
2023/12/04 08:14:12;;;;;;;24.13;13.60;;;0.30;99.00;;;;;;6300973;22;20039;-71
2023/12/04 08:16:58;;;;;;;22.13;13.07;;;0.30;99.10;;;;;;6301513;22;20026;-72
2023/12/04 08:19:44;;;;;;;21.90;13.50;;;0.40;99.00;;;;;;6296676;22;20090;-70
2023/12/04 08:22:31;;;;;;;22.88;13.63;;;0.40;98.90;;;;;;6299814;22;20007;-67
2023/12/04 08:25:17;;;;;;;22.13;14.02;;;0.40;98.90;;;;;;6299783;22;20102;-67
2023/12/04 08:28:03;;;;;;;22.35;13.43;;;0.40;98.90;;;;;;6277084;22;20006;-67
2023/12/04 08:30:49;;;;;;;20.63;13.10;;;0.40;98.80;;;;;;6297392;22;20050;-67
2023/12/04 08:33:36;;;;;;;26.75;14.63;;;0.50;98.90;;;;;;6299610;22;20391;-70
2023/12/04 08:36:21;;;;;;;20.38;11.85;;;0.50;98.90;;;;;;6299526;22;20019;-70
2023/12/04 08:39:07;;;;;;;23.25;14.48;;;0.60;98.90;;;;;;6296775;22;20058;-70
2023/12/04 08:41:53;;;;;;;24.95;14.55;;;0.60;98.80;;;;;;6294956;22;20357;-72
2023/12/04 08:44:40;;;;;;;22.90;13.38;;;0.70;98.80;;;;;;6297538;22;20007;-71
2023/12/04 08:47:26;;;;;;;25.55;13.18;;;0.70;98.80;;;;;;6298658;22;20062;-70
2023/12/04 08:50:12;;;;;;;21.73;12.55;;;0.70;98.80;;;;;;6299275;22;20077;-71
2023/12/04 08:52:58;;;;;;;19.20;11.65;;;0.70;98.70;;;;;;6297464;22;20121;-67
2023/12/04 08:55:44;;;;;;;19.70;12.48;;;0.80;98.70;;;;;;6299184;22;20050;-71
2023/12/04 08:58:30;;;;;;;22.02;13.75;;;0.90;98.70;;;;;;6296696;22;20054;-70
2023/12/04 09:01:16;;;;;;;22.70;12.75;;;0.90;98.60;;;;;;6298303;22;20483;-72
2023/12/04 09:04:02;;;;;;;23.05;13.43;;;0.90;98.60;;;;;;6299485;22;20458;-70
2023/12/04 09:06:48;;;;;;;21.42;12.60;;;1.00;98.60;;;;;;6298983;22;20027;-72
2023/12/04 09:09:34;;;;;;;20.02;12.38;;;1.00;98.50;;;;;;6295728;22;20356;-69
2023/12/04 09:12:21;;;;;;;23.08;12.75;;;1.00;98.50;;;;;;6298431;22;20406;-69
2023/12/04 09:15:07;;;;;;;22.02;11.73;;;1.00;98.50;;;;;;6299300;22;20050;-69
2023/12/04 09:17:53;;;;;;;26.00;14.65;;;1.00;98.50;;;;;;6276053;22;20018;-70
2023/12/04 09:20:39;;;;;;;19.58;12.00;;;1.10;98.50;;;;;;6301058;22;20316;-70
2023/12/04 09:23:25;;;;;;;20.58;11.98;;;1.10;98.40;;;;;;6297077;22;20062;-69
2023/12/04 09:26:11;;;;;;;25.40;14.00;;;1.10;98.50;;;;;;6275889;22;20094;-70
2023/12/04 09:28:57;;;;;;;18.67;11.25;;;1.10;98.40;;;;;;6300424;22;20090;-70
2023/12/04 09:31:43;;;;;;;21.80;12.50;;;1.20;98.40;;;;;;6251009;22;1110894;-66
2023/12/04 09:34:29;;;;;;;19.23;11.90;;;1.20;98.40;;;;;;6296903;22;20429;-65
2023/12/04 09:37:15;;;;;;;23.08;13.75;;;1.20;98.30;;;;;;6302501;22;20381;-65
2023/12/04 09:40:01;;;;;;;22.88;13.75;;;1.20;98.30;;;;;;6302562;22;20339;-65
2023/12/04 09:42:47;;;;;;;20.67;11.85;;;1.30;98.30;;;;;;6302074;22;20366;-65
2023/12/04 09:45:33;;;;;;;19.98;12.00;;;1.30;98.30;;;;;;6300959;22;20348;-65
2023/12/04 09:48:20;;;;;;;21.40;12.05;;;1.30;98.30;;;;;;6301176;22;20085;-65
2023/12/04 09:51:07;;;;;;;21.60;11.77;;;1.40;98.30;;;;;;6301128;22;20022;-65
2023/12/04 09:53:57;;;;;;;20.15;12.23;;;1.40;98.30;;;;;;6300755;22;20011;-66
2023/12/04 09:56:43;;;;;;;18.30;11.27;;;1.50;98.30;;;;;;6298160;22;20023;-65
2023/12/04 09:59:30;;;;;;;21.13;11.70;;;1.60;98.30;;;;;;6300336;22;20061;-70
2023/12/04 10:02:16;;;;;;;22.92;11.50;;;1.60;98.30;;;;;;6301259;22;20019;-70
2023/12/04 10:05:05;;;;;;;19.98;11.45;;;1.60;98.30;;;;;;6297583;22;20011;-69
2023/12/04 10:07:51;;;;;;;21.50;11.82;;;1.70;98.30;;;;;;6300822;22;20003;-70
2023/12/04 10:10:37;;;;;;;18.85;12.05;;;1.70;98.20;;;;;;6301180;22;20380;-70
2023/12/04 10:13:23;;;;;;;22.05;12.10;;;1.80;98.20;;;;;;6299707;22;20124;-73
2023/12/04 10:16:09;;;;;;;21.88;11.05;;;1.90;98.20;;;;;;6277927;22;20019;-71
2023/12/04 10:18:55;;;;;;;18.10;11.57;;;1.90;98.10;;;;;;6279879;22;20696;-72
2023/12/04 10:21:41;;;;;;;20.10;12.02;;;2.00;98.10;;;;;;6300191;22;20092;-75
2023/12/04 10:24:38;;;;;;;16.55;10.57;;;2.10;98.00;;;;;;6298047;22;20077;-70
2023/12/04 10:27:26;;;;;;;16.38;10.88;;;2.10;97.90;;;;;;6278273;22;20099;-70
2023/12/04 10:30:33;;;;;;;19.60;11.25;;;2.10;97.90;;;;;;6278038;22;20015;-66
2023/12/04 10:33:19;;;;;;;18.45;11.57;;;2.10;97.80;;;;;;6276846;22;20030;-65
2023/12/04 10:36:12;;;;;;;18.15;11.35;;;2.20;97.80;;;;;;6299999;22;20026;-65
2023/12/04 10:39:00;;;;;;;16.80;11.07;;;2.20;97.70;;;;;;6302659;22;20471;-66
2023/12/04 10:41:58;;;;;;;21.60;12.00;;;2.20;97.70;;;;;;6302697;22;20021;-66
2023/12/04 10:44:44;;;;;;;17.45;10.57;;;2.30;97.70;;;;;;6299615;22;20030;-71
2023/12/04 10:47:31;;;;;;;18.40;11.10;;;2.40;97.70;;;;;;6300117;22;20026;-71
2023/12/04 10:50:18;;;;;;;15.20;10.05;;;2.40;97.60;;;;;;6302538;22;20011;-70
2023/12/04 10:53:12;;;;;;;17.08;9.90;;;2.40;97.60;;;;;;6302755;22;20079;-71
2023/12/04 10:56:00;;;;;;;17.10;9.35;;;2.50;97.60;;;;;;6297764;22;20019;-69
2023/12/04 10:58:50;;;;;;;16.48;10.07;;;2.50;97.60;;;;;;6278675;22;20007;-70
2023/12/04 11:01:42;;;;;;;16.85;9.73;;;2.50;97.50;;;;;;6299732;22;20077;-70
2023/12/04 11:04:30;;;;;;;15.30;10.40;;;2.70;97.50;;;;;;6298123;22;20011;-71
2023/12/04 11:07:18;;;;;;;15.02;8.52;;;2.60;97.40;;;;;;6298933;22;20022;-70
2023/12/04 11:10:08;;;;;;;14.77;9.43;;;2.70;97.40;;;;;;6300632;22;20039;-70
2023/12/04 11:13:03;;;;;;;14.50;9.48;;;2.70;97.30;;;;;;6298950;22;20038;-70
2023/12/04 11:15:52;;;;;;;17.27;10.05;;;2.70;97.30;;;;;;6299055;22;20370;-68
2023/12/04 11:18:43;;;;;;;14.30;8.90;;;2.70;97.20;;;;;;6274917;22;20018;-68
2023/12/04 11:21:32;;;;;;;16.60;9.32;;;2.70;97.10;;;;;;6300242;22;20015;-68
2023/12/04 11:24:18;;;;;;;14.40;8.98;;;2.60;97.10;;;;;;6298927;22;20311;-69
2023/12/04 11:27:05;;;;;;;14.68;8.85;;;2.70;97.10;;;;;;6300177;22;20489;-67
2023/12/04 11:29:52;;;;;;;13.95;8.48;;;2.70;97.10;;;;;;6300568;22;20035;-68
2023/12/04 11:32:49;;;;;;;14.63;9.13;;;2.70;97.00;;;;;;6298304;22;20023;-67
2023/12/04 11:35:35;;;;;;;15.40;9.40;;;2.70;97.00;;;;;;6299172;22;20015;-67
2023/12/04 11:38:21;;;;;;;18.55;10.73;;;2.70;97.20;;;;;;6299292;22;20011;-67
2023/12/04 11:41:17;;;;;;;13.60;9.00;;;2.70;97.00;;;;;;6296684;22;20093;-67
2023/12/04 11:44:03;;;;;;;17.60;9.27;;;2.70;96.90;;;;;;6299255;22;20395;-67
2023/12/04 11:47:04;;;;;;;14.90;10.75;;;2.70;96.90;;;;;;6299375;22;20003;-67
2023/12/04 11:49:50;;;;;;;14.15;7.93;;;2.70;96.90;;;;;;6300977;22;20429;-67
2023/12/04 11:52:37;;;;;;;14.52;8.40;;;2.70;97.00;;;;;;6300023;22;20011;-69
2023/12/04 11:55:26;;;;;;;13.95;7.38;;;2.80;97.00;;;;;;6298525;22;20007;-70
2023/12/04 11:58:12;;;;;;;13.48;7.80;;;2.80;96.90;;;;;;6299874;22;20000;-69
2023/12/04 12:01:00;;;;;;;14.88;7.82;;;2.80;96.90;;;;;;6298947;22;20042;-70
2023/12/04 12:03:50;;;;;;;14.02;8.13;;;2.90;96.90;;;;;;6298366;22;20094;-69
2023/12/04 12:06:36;;;;;;;14.77;9.18;;;2.90;96.90;;;;;;6296854;22;20050;-69
2023/12/04 12:09:23;;;;;;;19.17;8.90;;;3.00;96.90;;;;;;6299915;22;20231;-70
2023/12/04 12:12:09;;;;;;;14.25;8.18;;;3.00;96.90;;;;;;6298546;22;20011;-69
2023/12/04 12:14:55;;;;;;;14.55;8.57;;;3.00;96.80;;;;;;6297625;22;20114;-69
2023/12/04 12:17:41;;;;;;;12.98;8.60;;;3.10;96.80;;;;;;6298969;22;20019;-70
2023/12/04 12:20:27;;;;;;;13.57;8.57;;;3.10;96.70;;;;;;6299274;22;20007;-74
2023/12/04 12:23:13;;;;;;;13.07;8.50;;;3.00;96.70;;;;;;6299436;22;20012;-70
2023/12/04 12:26:00;;;;;;;13.75;8.32;;;3.00;96.80;;;;;;6300140;22;20359;-68
2023/12/04 12:28:46;;;;;;;16.15;8.98;;;3.00;96.70;;;;;;6298514;22;20501;-72
2023/12/04 12:31:32;;;;;;;14.02;8.80;;;3.00;96.60;;;;;;6298368;22;20111;-72
2023/12/04 12:34:18;;;;;;;14.20;8.57;;;3.00;96.60;;;;;;6277998;22;20007;-71
2023/12/04 12:37:05;;;;;;;12.63;9.10;;;3.10;96.60;;;;;;6298875;22;20099;-72
2023/12/04 12:39:52;;;;;;;12.77;9.07;;;3.10;96.60;;;;;;6299588;22;20015;-67
2023/12/04 12:42:47;;;;;;;12.63;8.23;;;3.10;96.60;;;;;;6277415;22;20378;-67
2023/12/04 12:45:44;;;;;;;14.02;8.55;;;3.10;96.60;;;;;;6299010;22;20093;-68
2023/12/04 12:48:29;;;;;;;13.32;7.95;;;3.20;96.60;;;;;;6297201;22;20018;-68
2023/12/04 12:51:17;;;;;;;14.95;8.85;;;3.20;96.60;;;;;;6297198;22;20154;-67
2023/12/04 12:54:03;;;;;;;17.05;9.45;;;3.10;96.60;;;;;;6297988;22;20007;-67
2023/12/04 12:56:49;;;;;;;12.98;8.60;;;3.10;96.60;;;;;;6298855;22;20499;-67
2023/12/04 12:59:35;;;;;;;15.18;9.43;;;3.10;96.50;;;;;;6297834;22;20274;-67
2023/12/04 13:02:21;;;;;;;14.50;8.68;;;3.10;96.50;;;;;;6298915;22;20023;-66
2023/12/04 13:05:07;;;;;;;11.35;8.00;;;3.10;96.50;;;;;;6296228;22;20019;-66
2023/12/04 13:07:55;;;;;;;15.02;9.05;;;3.10;96.50;;;;;;6298543;22;20092;-69
2023/12/04 13:10:41;;;;;;;17.05;9.48;;;3.10;96.50;;;;;;6298970;22;20667;-70
2023/12/04 13:13:28;;;;;;;14.93;9.35;;;3.10;96.50;;;;;;6298384;22;20007;-69
2023/12/04 13:16:14;;;;;;;15.10;9.65;;;3.10;96.50;;;;;;6276938;22;20032;-69
2023/12/04 13:19:00;;;;;;;14.35;8.85;;;3.10;96.50;;;;;;6299604;22;20014;-70
2023/12/04 13:21:46;;;;;;;16.88;9.25;;;3.10;96.50;;;;;;6298593;22;20015;-69
2023/12/04 13:24:32;;;;;;;15.43;9.77;;;3.10;96.50;;;;;;6299244;22;20011;-69
2023/12/04 13:27:18;;;;;;;16.52;9.68;;;3.00;96.50;;;;;;6298887;22;20081;-69
2023/12/04 13:30:10;;;;;;;13.60;8.45;;;3.00;96.50;;;;;;6297934;22;20058;-69
2023/12/04 13:32:56;;;;;;;16.35;8.85;;;3.00;96.50;;;;;;6297192;22;20011;-70
2023/12/04 13:35:42;;;;;;;17.63;9.38;;;3.10;96.60;;;;;;6297344;22;20185;-66
2023/12/04 13:38:28;;;;;;;14.02;8.63;;;3.00;96.50;;;;;;6300385;22;20004;-67
2023/12/04 13:44:18;;;;;;;14.90;8.70;;;3.00;96.50;;;;;;6299973;22;20015;-66
2023/12/04 13:47:05;;;;;;;13.18;8.75;;;3.00;96.40;;;;;;6278740;22;20015;-69
2023/12/04 13:49:51;;;;;;;16.20;9.27;;;3.00;96.50;;;;;;6297976;22;20405;-66
2023/12/04 13:52:38;;;;;;;14.45;9.23;;;3.00;96.50;;;;;;6297497;22;20458;-66
2023/12/04 13:55:43;;;;;;;14.40;9.20;;;3.00;96.50;;;;;;6299887;22;20010;-66
2023/12/04 13:58:42;;;;;;;18.60;9.52;;;2.90;96.40;;;;;;6301338;22;20496;-66
2023/12/04 14:01:29;;;;;;;18.08;8.80;;;2.90;96.40;;;;;;6298092;22;20089;-66
2023/12/04 14:04:15;;;;;;;20.63;9.55;;;2.90;96.40;;;;;;6302052;22;20057;-66
2023/12/04 14:07:01;;;;;;;13.23;8.68;;;2.90;96.40;;;;;;6300797;22;20141;-65
2023/12/04 14:09:47;;;;;;;14.35;7.90;;;2.80;96.40;;;;;;6301459;22;20007;-66
2023/12/04 14:12:33;;;;;;;15.52;8.98;;;2.80;96.40;;;;;;6279155;22;20007;-65
2023/12/04 14:15:19;;;;;;;13.45;9.85;;;2.80;96.30;;;;;;6300861;22;20053;-66